LIRQLIPZ

Guest
Details From LIRQ - Firenze
To LIPZ - Venezia Tessera
Flight Number -
Tags Routegen Generated
Created
Modified
Stats Distance 112 nm / 208 km
Max Altitude 400 ft / 122 m
Waypoints 7
Social Downloads 3
Likes 0
Share VATSIM

Download

Looking for another format? Having issues loading an existing format? Contact us
Advertisement - Login to hide

Notes

Departing runway 4 LIRQ. Arriving runway 4 LIPZ.

Route

LIRQ +43.86_+011.29 +43.91_+011.33 +44.51_+011.69 +45.39_+012.24 +45.44_+012.27 LIPZ

ID Type Via Altitude Latitude Longitude Leg Dist Tot Dist Heading (true) Name
O LIRQ APT - 0 ft / 0 m 43.81490˚ 11.21283˚ - 0 nm - Firenze
+43.86_+011.29 LATLON - 400 ft / 122 m 43.86280˚ 11.28804˚ 4 nm 4 nm 49° / 49° -
+43.91_+011.33 LATLON - 400 ft / 122 m 43.91366˚ 11.32642˚ 3 nm 7 nm 29° / 29° -
+44.51_+011.69 LATLON - 400 ft / 122 m 44.50651˚ 11.68758˚ 38 nm 46 nm 23° / 24° -
+45.39_+012.24 LATLON - 400 ft / 122 m 45.38669˚ 12.23774˚ 57 nm 104 nm 24° / 24° -
+45.44_+012.27 LATLON - 400 ft / 122 m 45.44036˚ 12.26866˚ 3 nm 107 nm 22° / 22° -
O LIPZ APT - 0 ft / 0 m 45.49413˚ 12.33772˚ 4 nm 112 nm 42° / 42° -

Altitude Profile

Advertisement - Login to hide

LIRQ

Details ICAO LIRQ (FLR)
Name Firenze
Region Italy
Timezone Europe/Rome (UTC+1.0)
Stats Elevation 142 ft / 43 m (AMSL)
Location 43.809984° 11.205118°
Runways 1
Magnetic Variation 2.874° E

METAR

LIRQ 121220Z 12005KT 090V170 9999 FEW025 BKN060 11/09 Q1012

Decode

TAF

TAF LIRQ 121100Z 1212/1312 VRB06KT 8000 SCT030 TEMPO 1212/1215 RA

Decode

Departure Runways

ID Width Length Bearing (true) Bearing (mag) Surface Threshold Offset Overrun Length
05 98 ft / 30 m 5,420 ft / 1,652 m 48.52° 45.65° Asphalt 492 ft / 150 m 0 ft / 0 m
23 98 ft / 30 m 5,420 ft / 1,652 m 228.53° 225.66° Asphalt 2,287 ft / 697 m 0 ft / 0 m

LIPZ

Details ICAO LIPZ (VCE)
Name Venezia Tessera
Region Italy
Timezone Europe/Rome (UTC+1.0)
Stats Elevation 7 ft / 2 m (AMSL)
Location 45.504791° 12.349691°
Runways 2
Magnetic Variation 3.179° E

METAR

LIPZ 121220Z 17005KT 140V200 CAVOK 09/06 Q1009 NOSIG

Decode

TAF

TAF LIPZ 121100Z 1212/1318 19012KT 9999 SCT040 BECMG 1306/1309 02015KT

Decode

Destination Runways

ID Width Length Bearing (true) Bearing (mag) Surface Threshold Offset Overrun Length
04L 148 ft / 45 m 9,112 ft / 2,777 m 42.01° 38.83° Asphalt 312 ft / 95 m 0 ft / 0 m
04R 148 ft / 45 m 10,834 ft / 3,302 m 41.99° 38.81° Asphalt 0 ft / 0 m 0 ft / 0 m
22L 148 ft / 45 m 10,834 ft / 3,302 m 222.01° 218.83° Asphalt 0 ft / 0 m 0 ft / 0 m
22R 148 ft / 45 m 9,112 ft / 2,777 m 222.02° 218.84° Asphalt 0 ft / 0 m 0 ft / 0 m

Approach Navaids

Runway Type Ident Frequency Range Bearing (true) Bearing (mag) Slope Elevation
04R Localiser VTS 109.95 MHz 18 nm / 33 km 42.02° 38.84° - 13 ft / 4 m (AMSL)
04R Glidescope VTS 109.95 MHz 10 nm / 19 km 42.00° 38.82° 3.00° 52 ft / 16 m (AMSL)
04R DME VTS 109.95 MHz 18 nm / 33 km - - - 26 ft / 8 m (AMSL)

Popular Alternatives